createdAt,value
2023-05-11T00:01:41.441Z,100199.64
2023-05-11T00:04:11.196Z,100200.78
2023-05-11T00:06:41.061Z,100193.55
2023-05-11T00:09:11.545Z,100200.08
2023-05-11T00:11:41.623Z,100198.52
2023-05-11T00:14:11.398Z,100195.98
2023-05-11T00:16:41.197Z,100198.05
2023-05-11T00:19:10.919Z,100200.94
2023-05-11T00:21:40.993Z,100201.91
2023-05-11T00:24:10.528Z,100203.12
2023-05-11T00:26:40.329Z,100199.74
2023-05-11T00:29:09.849Z,100200.34
2023-05-11T00:31:39.713Z,100198.78
2023-05-11T00:34:09.282Z,100200.23
2023-05-11T00:36:41.323Z,100198.30
2023-05-11T00:39:12.637Z,100202.77
2023-05-11T00:41:42.461Z,100205.66
2023-05-11T00:44:12.889Z,100205.05
2023-05-11T00:46:43.261Z,100206.05
2023-05-11T00:49:15.391Z,100208.34
2023-05-11T00:51:45.440Z,100202.44
2023-05-11T00:54:16.299Z,100209.43
2023-05-11T00:56:48.300Z,100205.57
2023-05-11T00:59:17.906Z,100207.74
2023-05-11T01:01:47.880Z,100210.05
2023-05-11T01:04:17.785Z,100210.05
2023-05-11T01:07:09.290Z,100213.66
2023-05-11T01:10:06.440Z,100204.86
2023-05-11T01:13:04.016Z,100206.33
2023-05-11T01:15:49.326Z,100208.12
2023-05-11T01:18:41.343Z,100205.34
2023-05-11T01:21:15.587Z,100205.36
2023-05-11T01:24:05.132Z,100210.03
2023-05-11T01:27:00.887Z,100205.56
2023-05-11T01:29:46.117Z,100205.43
2023-05-11T01:32:21.726Z,100207.98
2023-05-11T01:34:54.655Z,100213.59
2023-05-11T01:37:26.745Z,100206.82
2023-05-11T01:40:00.236Z,100208.88
2023-05-11T01:42:41.812Z,100209.28
2023-05-11T01:45:13.858Z,100205.73
2023-05-11T01:47:46.369Z,100205.73
2023-05-11T01:50:18.710Z,100215.13
2023-05-11T01:52:50.609Z,100214.27
2023-05-11T01:55:24.706Z,100214.74
2023-05-11T01:57:56.980Z,100215.70
2023-05-11T02:00:27.315Z,100218.09
2023-05-11T02:02:59.962Z,100215.59
2023-05-11T02:05:31.485Z,100217.64
2023-05-11T02:08:04.666Z,100222.20
2023-05-11T02:10:36.423Z,100221.13
2023-05-11T02:13:07.369Z,100221.73
2023-05-11T02:15:43.075Z,100221.73
2023-05-11T02:18:15.776Z,100188.91
2023-05-11T02:20:47.713Z,100188.91
2023-05-11T02:23:18.052Z,100225.33
2023-05-11T02:25:49.609Z,100229.30
2023-05-11T02:28:20.054Z,100227.47
2023-05-11T02:30:54.064Z,100227.47
2023-05-11T02:33:32.821Z,100224.59
2023-05-11T02:36:04.188Z,100225.89
2023-05-11T02:38:38.452Z,100226.82
2023-05-11T02:41:12.431Z,100227.41
2023-05-11T02:43:45.699Z,100223.55
2023-05-11T02:46:18.761Z,100225.02
2023-05-11T02:48:54.836Z,100226.97
2023-05-11T02:51:28.665Z,100228.59
2023-05-11T02:54:00.006Z,100226.67
2023-05-11T02:56:32.119Z,100223.08
2023-05-11T02:59:03.224Z,100222.56
2023-05-11T03:01:34.290Z,100224.95
2023-05-11T03:04:07.164Z,100228.30
2023-05-11T03:06:38.299Z,100228.19
2023-05-11T03:09:10.312Z,100231.20
2023-05-11T03:11:43.025Z,100224.70
2023-05-11T03:14:12.162Z,100229.99
2023-05-11T03:16:42.762Z,100225.77
2023-05-11T03:19:13.836Z,100225.17
2023-05-11T03:21:43.949Z,100228.05
2023-05-11T03:24:13.864Z,100228.41
2023-05-11T03:26:44.264Z,100227.34
2023-05-11T03:29:15.988Z,100230.10
2023-05-11T03:31:45.923Z,100227.82
2023-05-11T03:34:16.137Z,100227.82
2023-05-11T03:36:48.614Z,100232.89
2023-05-11T03:39:19.115Z,100226.39
2023-05-11T03:41:50.950Z,100226.61
2023-05-11T03:44:22.363Z,100235.87
2023-05-11T03:46:54.022Z,100232.27
2023-05-11T03:49:25.396Z,100230.73
2023-05-11T03:51:55.946Z,100232.27
2023-05-11T03:54:26.776Z,100230.36
2023-05-11T03:56:57.619Z,100236.49
2023-05-11T03:59:27.578Z,100240.46
2023-05-11T04:01:58.802Z,100240.79
2023-05-11T04:04:32.496Z,100235.87
2023-05-11T04:07:02.699Z,100240.42
2023-05-11T04:09:32.821Z,100235.17
2023-05-11T04:12:02.596Z,100244.54
2023-05-11T04:14:32.416Z,100232.25
2023-05-11T04:17:02.272Z,100242.92
2023-05-11T04:19:32.103Z,100246.77
2023-05-11T04:22:03.323Z,100241.04
2023-05-11T04:24:32.742Z,100245.13
2023-05-11T04:27:03.722Z,100238.36
2023-05-11T04:29:33.522Z,100240.70
2023-05-11T04:32:03.521Z,100234.70
2023-05-11T04:34:33.720Z,100233.52
2023-05-11T04:37:06.731Z,100236.39
2023-05-11T04:39:39.154Z,100249.28
2023-05-11T04:42:08.994Z,100250.86
2023-05-11T04:44:39.509Z,100250.91
2023-05-11T04:47:09.458Z,100249.98
2023-05-11T04:49:39.737Z,100253.34
2023-05-11T04:52:10.488Z,100252.02
2023-05-11T04:54:40.632Z,100254.32
2023-05-11T04:57:10.532Z,100245.20
2023-05-11T04:59:40.472Z,100245.20
2023-05-11T05:02:10.292Z,100253.53
2023-05-11T05:04:40.103Z,100254.50
2023-05-11T05:07:10.582Z,100262.58
2023-05-11T05:09:41.124Z,100260.91
2023-05-11T05:12:12.263Z,100260.98
2023-05-11T05:14:42.158Z,100259.40
2023-05-11T05:17:11.890Z,100257.70
2023-05-11T05:19:42.548Z,100257.96
2023-05-11T05:22:12.394Z,100270.33
2023-05-11T05:24:42.287Z,100270.00
2023-05-11T05:27:12.191Z,100262.47
2023-05-11T05:29:42.551Z,100259.50
2023-05-11T05:32:12.489Z,100266.80
2023-05-11T05:34:42.305Z,100262.19
2023-05-11T05:37:12.280Z,100262.19
2023-05-11T05:39:42.062Z,100265.64
2023-05-11T05:42:12.052Z,100263.83
2023-05-11T05:44:42.404Z,100273.10
2023-05-11T05:47:12.084Z,100263.64
2023-05-11T05:49:42.397Z,100264.84
2023-05-11T05:52:12.208Z,100269.28
2023-05-11T05:54:43.156Z,100266.63
2023-05-11T05:57:15.049Z,100275.05
2023-05-11T05:59:45.926Z,100277.53
2023-05-11T06:02:17.150Z,100262.21
2023-05-11T06:04:47.314Z,100263.49
2023-05-11T06:07:17.368Z,100276.03
2023-05-11T06:09:47.128Z,100278.57
2023-05-11T06:12:16.828Z,100277.58
2023-05-11T06:14:47.910Z,100270.59
2023-05-11T06:17:17.562Z,100269.80
2023-05-11T06:19:47.736Z,100271.73
2023-05-11T06:22:17.942Z,100272.44
2023-05-11T06:24:47.749Z,100266.57
2023-05-11T06:27:18.387Z,100278.93
2023-05-11T06:29:47.452Z,100275.64
2023-05-11T06:32:17.242Z,100269.72
2023-05-11T06:34:47.168Z,100272.67
2023-05-11T06:37:18.668Z,100270.47
2023-05-11T06:39:52.322Z,100271.45
2023-05-11T06:42:23.404Z,100268.48
2023-05-11T06:44:53.477Z,100271.58
2023-05-11T06:47:24.417Z,100273.33
2023-05-11T06:49:54.285Z,100270.96
2023-05-11T06:52:24.098Z,100271.52
2023-05-11T06:54:54.019Z,100272.20
2023-05-11T06:57:23.809Z,100265.62
2023-05-11T06:59:53.785Z,100270.02
2023-05-11T07:02:23.312Z,100278.94
2023-05-11T07:04:53.165Z,100272.18
2023-05-11T07:07:22.863Z,100271.02
2023-05-11T07:09:52.825Z,100268.09
2023-05-11T07:12:22.951Z,100273.83
2023-05-11T07:14:52.753Z,100270.50
2023-05-11T07:17:22.400Z,100260.33
2023-05-11T07:19:52.507Z,100262.47
2023-05-11T07:22:22.192Z,100253.70
2023-05-11T07:24:52.071Z,100261.09
2023-05-11T07:27:21.606Z,100262.83
2023-05-11T07:29:52.571Z,100265.86
2023-05-11T07:32:22.742Z,100270.75
2023-05-11T07:34:52.478Z,100266.84
2023-05-11T07:37:22.283Z,100266.30
2023-05-11T07:39:52.046Z,100266.37
2023-05-11T07:42:21.862Z,100263.63
2023-05-11T07:44:51.737Z,100265.19
2023-05-11T07:47:21.555Z,100265.30
2023-05-11T07:49:51.163Z,100266.81
2023-05-11T07:52:20.931Z,100263.06
2023-05-11T07:54:50.918Z,100267.42
2023-05-11T07:57:21.180Z,100276.45
2023-05-11T07:59:51.316Z,100275.44
2023-05-11T08:02:20.868Z,100272.52
2023-05-11T08:04:50.834Z,100272.85
2023-05-11T08:07:20.340Z,100266.97
2023-05-11T08:09:50.228Z,100269.42
2023-05-11T08:12:20.079Z,100265.62
2023-05-11T08:14:49.962Z,100254.88
2023-05-11T08:17:19.814Z,100254.88
2023-05-11T08:19:49.552Z,100267.95
2023-05-11T08:22:19.417Z,100273.30
2023-05-11T08:24:50.742Z,100266.33
2023-05-11T08:27:21.188Z,100259.69
2023-05-11T08:29:52.585Z,100269.08
2023-05-11T08:32:22.586Z,100274.19
2023-05-11T08:34:52.628Z,100261.41
2023-05-11T08:37:23.347Z,100267.25
2023-05-11T08:39:52.191Z,100268.48
2023-05-11T08:42:23.429Z,100269.20
2023-05-11T08:44:57.992Z,100268.09
2023-05-11T08:47:28.386Z,100267.23
2023-05-11T08:49:58.649Z,100271.48
2023-05-11T08:52:28.730Z,100249.38
2023-05-11T08:54:58.454Z,100249.38
2023-05-11T08:57:30.349Z,100267.86
2023-05-11T09:00:03.412Z,100264.62
2023-05-11T09:02:34.182Z,100262.45
2023-05-11T09:05:04.483Z,100257.98
2023-05-11T09:07:37.492Z,100265.23
2023-05-11T09:10:08.120Z,100257.39
2023-05-11T09:12:38.682Z,100263.02
2023-05-11T09:15:09.366Z,100258.97
2023-05-11T09:17:38.962Z,100261.81
2023-05-11T09:20:09.512Z,100262.41
2023-05-11T09:22:45.433Z,100256.96
2023-05-11T09:25:18.429Z,100261.23
2023-05-11T09:27:49.266Z,100262.43
2023-05-11T09:30:24.229Z,100241.20
2023-05-11T09:32:58.549Z,100241.20
2023-05-11T09:35:30.333Z,100250.19
2023-05-11T09:38:11.936Z,100252.88
2023-05-11T09:40:43.830Z,100247.88
2023-05-11T09:43:24.197Z,100247.36
2023-05-11T09:45:57.364Z,100252.55
2023-05-11T09:48:32.678Z,100246.23
2023-05-11T09:51:09.281Z,100247.85
2023-05-11T09:53:46.058Z,100249.08
2023-05-11T09:56:16.068Z,100255.44
2023-05-11T09:58:48.834Z,100244.14
2023-05-11T10:01:21.353Z,100251.49
2023-05-11T10:04:00.219Z,100238.58
2023-05-11T10:06:25.966Z,100225.68
2023-05-11T10:08:56.489Z,100235.78
2023-05-11T10:11:26.922Z,100227.89
2023-05-11T10:13:59.493Z,100227.42
2023-05-11T10:16:29.404Z,100224.78
2023-05-11T10:19:00.237Z,100233.09
2023-05-11T10:21:30.614Z,100238.65
2023-05-11T10:24:01.070Z,100246.55
2023-05-11T10:26:32.549Z,100234.92
2023-05-11T10:29:02.926Z,100237.80
2023-05-11T10:31:34.267Z,100225.98
2023-05-11T10:34:05.189Z,100219.69
2023-05-11T10:36:35.525Z,100226.06
2023-05-11T10:39:06.389Z,100228.82
2023-05-11T10:41:41.780Z,100226.56
2023-05-11T10:44:32.912Z,100221.01
2023-05-11T10:47:03.277Z,100216.98
2023-05-11T10:49:38.777Z,100222.35
2023-05-11T10:52:23.435Z,100218.86
2023-05-11T10:55:15.785Z,100213.48
2023-05-11T10:57:51.418Z,100213.14
2023-05-11T11:00:28.416Z,100214.61
2023-05-11T11:02:59.731Z,100220.02
2023-05-11T11:05:38.869Z,100213.11
2023-05-11T11:08:09.581Z,100214.89
2023-05-11T11:10:39.988Z,100211.52
2023-05-11T11:13:11.869Z,100209.92
2023-05-11T11:16:02.919Z,100203.82
2023-05-11T11:18:35.462Z,100212.45
2023-05-11T11:21:06.330Z,100204.17
2023-05-11T11:23:48.374Z,100199.71
2023-05-11T11:26:21.443Z,100213.39
2023-05-11T11:29:02.692Z,100203.63
2023-05-11T11:31:34.881Z,100210.95
2023-05-11T11:34:32.211Z,100206.45
2023-05-11T11:37:03.916Z,100210.81
2023-05-11T11:39:50.126Z,100178.20
2023-05-11T11:42:38.792Z,100178.20
2023-05-11T11:45:32.302Z,100206.76
2023-05-11T11:48:10.284Z,100195.65
2023-05-11T11:50:41.916Z,100195.05
2023-05-11T11:53:16.850Z,100191.16
2023-05-11T11:55:51.988Z,100200.77
2023-05-11T11:58:47.153Z,100194.25
2023-05-11T12:01:19.027Z,100201.84
2023-05-11T12:03:52.458Z,100196.91
2023-05-11T12:06:26.560Z,100201.74
2023-05-11T12:08:56.361Z,100196.82
2023-05-11T12:11:27.464Z,100212.32
2023-05-11T12:13:57.911Z,100204.88
2023-05-11T12:16:29.013Z,100200.05
2023-05-11T12:19:01.815Z,100202.06
2023-05-11T12:21:33.163Z,100195.89
2023-05-11T12:24:02.969Z,100201.47
2023-05-11T12:26:34.576Z,100203.50
2023-05-11T12:29:15.666Z,100201.53
2023-05-11T12:31:47.287Z,100196.13
2023-05-11T12:34:18.832Z,100198.08
2023-05-11T12:36:50.700Z,100189.66
2023-05-11T12:39:27.919Z,100197.02
2023-05-11T12:41:58.592Z,100187.58
2023-05-11T12:44:28.852Z,100175.87
2023-05-11T12:46:58.524Z,100175.87
2023-05-11T12:49:28.770Z,100189.05
2023-05-11T12:52:06.026Z,100187.30
2023-05-11T12:54:44.412Z,100185.48
2023-05-11T12:57:28.596Z,100184.69
2023-05-11T13:00:13.271Z,100184.16
2023-05-11T13:02:52.554Z,100183.46
2023-05-11T13:05:29.786Z,100178.58
2023-05-11T13:08:04.274Z,100169.93
2023-05-11T13:10:34.459Z,100169.93
2023-05-11T13:13:04.259Z,100167.59
2023-05-11T13:15:34.449Z,100172.52
2023-05-11T13:18:04.329Z,100174.12
2023-05-11T13:20:35.124Z,100162.55
2023-05-11T13:23:13.322Z,100167.59
2023-05-11T13:25:51.748Z,100151.23
2023-05-11T13:28:24.346Z,100151.23
2023-05-11T13:31:02.138Z,100159.48
2023-05-11T13:33:31.916Z,100157.38
2023-05-11T13:36:02.513Z,100163.28
2023-05-11T13:38:32.318Z,100167.01
2023-05-11T13:41:02.128Z,100162.04
2023-05-11T13:43:32.296Z,100163.33
2023-05-11T13:46:03.599Z,100161.30
2023-05-11T13:48:33.536Z,100158.98
2023-05-11T13:51:03.383Z,100158.98
2023-05-11T13:53:33.325Z,100154.92
2023-05-11T13:56:04.397Z,100135.80
2023-05-11T13:58:34.434Z,100135.80
2023-05-11T14:01:08.402Z,100149.59
2023-05-11T14:03:36.468Z,100147.72
2023-05-11T14:06:07.149Z,100151.17
2023-05-11T14:08:37.278Z,100149.03
2023-05-11T14:11:06.962Z,100132.83
2023-05-11T14:13:36.767Z,100130.78
2023-05-11T14:16:07.409Z,100126.97
2023-05-11T14:18:37.446Z,100125.80
2023-05-11T14:21:07.227Z,100127.67
2023-05-11T14:23:39.859Z,100124.83
2023-05-11T14:26:08.121Z,100118.83
2023-05-11T14:28:37.750Z,100126.81
2023-05-11T14:31:07.702Z,100120.55
2023-05-11T14:33:37.354Z,100113.31
2023-05-11T14:36:07.216Z,100118.28
2023-05-11T14:38:36.801Z,100117.89
2023-05-11T14:41:07.710Z,100106.00
2023-05-11T14:43:37.068Z,100106.83
2023-05-11T14:46:06.688Z,100106.50
2023-05-11T14:48:36.534Z,100074.74
2023-05-11T14:51:07.308Z,100104.48
2023-05-11T14:53:37.109Z,100103.53
2023-05-11T14:56:07.523Z,100103.75
2023-05-11T14:58:37.566Z,100121.48
2023-05-11T15:01:08.235Z,100116.47
2023-05-11T15:03:38.066Z,100123.09
2023-05-11T15:06:08.270Z,100124.66
2023-05-11T15:08:38.144Z,100124.52
2023-05-11T15:11:07.670Z,100127.00
2023-05-11T15:13:37.469Z,100120.66
2023-05-11T15:16:07.304Z,100124.00
2023-05-11T15:18:37.106Z,100123.75
2023-05-11T15:21:07.008Z,100107.83
2023-05-11T15:23:36.665Z,100107.83
2023-05-11T15:26:06.938Z,100124.48
2023-05-11T15:28:36.804Z,100123.35
2023-05-11T15:31:06.622Z,100120.41
2023-05-11T15:33:36.468Z,100120.77
2023-05-11T15:36:10.128Z,100126.25
2023-05-11T15:38:40.161Z,100104.91
2023-05-11T15:41:10.411Z,100104.91
2023-05-11T15:43:40.450Z,100126.67
2023-05-11T15:46:10.321Z,100123.78
2023-05-11T15:48:39.935Z,100127.64
2023-05-11T15:51:09.744Z,100126.77
2023-05-11T15:53:39.557Z,100125.68
2023-05-11T15:56:09.856Z,100129.72
2023-05-11T15:58:39.743Z,100130.08
2023-05-11T16:01:09.283Z,100133.02
2023-05-11T16:03:39.177Z,100128.47
2023-05-11T16:06:09.063Z,100126.44
2023-05-11T16:08:38.933Z,100125.78
2023-05-11T16:11:08.476Z,100125.03
2023-05-11T16:13:38.343Z,100127.07
2023-05-11T16:16:08.058Z,100124.82
2023-05-11T16:18:39.166Z,100124.58
2023-05-11T16:21:09.230Z,100119.02
2023-05-11T16:23:38.778Z,100121.28
2023-05-11T16:26:09.114Z,100116.83
2023-05-11T16:28:38.806Z,100118.19
2023-05-11T16:31:09.249Z,100114.81
2023-05-11T16:33:39.109Z,100097.27
2023-05-11T16:36:09.886Z,100097.27
2023-05-11T16:38:38.772Z,100107.78
2023-05-11T16:41:08.213Z,100106.23
2023-05-11T16:43:39.695Z,100110.00
2023-05-11T16:46:10.041Z,100107.56
2023-05-11T16:48:39.938Z,100111.53
2023-05-11T16:51:09.739Z,100106.95
2023-05-11T16:53:39.541Z,100111.46
2023-05-11T16:56:09.421Z,100107.41
2023-05-11T16:58:39.331Z,100109.97
2023-05-11T17:01:08.677Z,100109.34
2023-05-11T17:03:38.562Z,100112.20
2023-05-11T17:06:10.046Z,100116.81
2023-05-11T17:08:39.871Z,100117.72
2023-05-11T17:11:09.604Z,100118.79
2023-05-11T17:13:39.551Z,100109.94
2023-05-11T17:16:09.269Z,100117.66
2023-05-11T17:18:39.484Z,100118.79
2023-05-11T17:21:09.681Z,100122.88
2023-05-11T17:23:39.913Z,100119.05
2023-05-11T17:26:10.821Z,100119.89
2023-05-11T17:28:41.506Z,100105.52
2023-05-11T17:31:13.366Z,100105.52
2023-05-11T17:33:43.947Z,100122.66
2023-05-11T17:36:14.029Z,100128.78
2023-05-11T17:38:43.780Z,100133.14
2023-05-11T17:41:14.489Z,100128.39
2023-05-11T17:43:44.494Z,100128.63
2023-05-11T17:46:16.088Z,100131.42
2023-05-11T17:48:46.117Z,100131.60
2023-05-11T17:51:16.187Z,100134.31
2023-05-11T17:53:46.045Z,100140.41
2023-05-11T17:56:15.641Z,100137.12
2023-05-11T17:58:45.863Z,100142.82
2023-05-11T18:01:16.005Z,100132.45
2023-05-11T18:03:46.824Z,100144.67
2023-05-11T18:06:16.633Z,100144.67
2023-05-11T18:08:46.146Z,100152.82
2023-05-11T18:11:16.120Z,100151.95
2023-05-11T18:13:46.191Z,100154.40
2023-05-11T18:16:15.851Z,100163.45
2023-05-11T18:18:46.214Z,100163.58
2023-05-11T18:21:15.744Z,100167.98
2023-05-11T18:23:45.568Z,100167.33
2023-05-11T18:26:16.039Z,100177.79
2023-05-11T18:28:46.076Z,100179.59
2023-05-11T18:31:17.306Z,100178.22
2023-05-11T18:33:47.399Z,100181.95
2023-05-11T18:36:17.189Z,100180.80
2023-05-11T18:38:48.976Z,100184.50
2023-05-11T18:41:18.549Z,100193.70
2023-05-11T18:43:52.710Z,100191.52
2023-05-11T18:46:22.594Z,100196.41
2023-05-11T18:48:54.100Z,100195.86
2023-05-11T18:51:24.037Z,100198.42
2023-05-11T18:53:54.714Z,100202.78
2023-05-11T18:56:24.490Z,100206.73
2023-05-11T18:58:54.640Z,100239.80
2023-05-11T19:01:33.111Z,100203.67
2023-05-11T19:03:56.105Z,100212.30
2023-05-11T19:06:25.603Z,100217.41
2023-05-11T19:08:55.821Z,100220.35
2023-05-11T19:11:25.666Z,100226.52
2023-05-11T19:13:55.641Z,100230.42
2023-05-11T19:16:25.490Z,100231.27
2023-05-11T19:18:56.768Z,100231.27
2023-05-11T19:21:26.608Z,100232.56
2023-05-11T19:23:56.421Z,100232.80
2023-05-11T19:26:26.275Z,100243.03
2023-05-11T19:28:56.069Z,100238.33
2023-05-11T19:31:28.103Z,100254.48
2023-05-11T19:34:02.749Z,100252.81
2023-05-11T19:36:33.416Z,100248.33
2023-05-11T19:39:04.379Z,100247.73
2023-05-11T19:41:34.453Z,100251.31
2023-05-11T19:44:04.613Z,100251.31
2023-05-11T19:46:34.416Z,100255.59
2023-05-11T19:49:04.257Z,100254.63
2023-05-11T19:51:34.139Z,100253.82
2023-05-11T19:54:04.028Z,100249.64
2023-05-11T19:56:33.931Z,100253.79
2023-05-11T19:59:04.610Z,100252.16
2023-05-11T20:01:35.319Z,100252.38
2023-05-11T20:04:06.423Z,100254.41
2023-05-11T20:06:36.278Z,100256.20
2023-05-11T20:09:07.322Z,100258.27
2023-05-11T20:11:37.093Z,100263.56
2023-05-11T20:14:06.904Z,100263.56
2023-05-11T20:16:37.106Z,100260.17
2023-05-11T20:19:06.854Z,100266.95
2023-05-11T20:21:36.766Z,100269.30
2023-05-11T20:24:06.726Z,100272.55
2023-05-11T20:26:38.102Z,100271.95
2023-05-11T20:29:09.631Z,100274.67
2023-05-11T20:31:39.510Z,100274.67
2023-05-11T20:34:09.353Z,100272.78
2023-05-11T20:36:39.506Z,100273.87
2023-05-11T20:39:09.205Z,100272.91
2023-05-11T20:41:39.102Z,100280.14
2023-05-11T20:44:10.267Z,100276.89
2023-05-11T20:46:39.809Z,100276.89
2023-05-11T20:49:11.388Z,100278.95
2023-05-11T20:51:41.477Z,100275.69
2023-05-11T20:54:12.497Z,100279.08
2023-05-11T20:56:42.260Z,100278.12
2023-05-11T21:00:03.626Z,100278.47
2023-05-11T21:01:43.863Z,100281.48
2023-05-11T21:04:13.761Z,100284.13
2023-05-11T21:06:43.572Z,100278.72
2023-05-11T21:09:13.535Z,100276.42
2023-05-11T21:11:43.528Z,100280.98
2023-05-11T21:14:13.036Z,100279.56
2023-05-11T21:16:42.941Z,100279.53
2023-05-11T21:19:12.809Z,100282.54
2023-05-11T21:21:42.890Z,100282.30
2023-05-11T21:24:13.993Z,100278.91
2023-05-11T21:26:47.951Z,100286.98
2023-05-11T21:29:17.793Z,100284.82
2023-05-11T21:31:47.620Z,100291.17
2023-05-11T21:34:17.296Z,100295.84
2023-05-11T21:36:47.472Z,100295.23
2023-05-11T21:39:17.267Z,100298.11
2023-05-11T21:41:47.806Z,100294.45
2023-05-11T21:44:17.322Z,100299.20
2023-05-11T21:46:47.525Z,100299.61
2023-05-11T21:49:17.430Z,100296.92
2023-05-11T21:51:47.432Z,100292.45
2023-05-11T21:54:16.959Z,100292.34
2023-05-11T21:56:46.783Z,100292.34
2023-05-11T21:59:19.940Z,100295.83
2023-05-11T22:01:50.286Z,100304.69
2023-05-11T22:04:21.564Z,100301.77
2023-05-11T22:06:51.087Z,100300.61
2023-05-11T22:09:20.793Z,100306.76
2023-05-11T22:11:51.390Z,100303.44
2023-05-11T22:14:23.688Z,100306.19
2023-05-11T22:16:53.493Z,100306.23
2023-05-11T22:19:23.305Z,100314.86
2023-05-11T22:21:53.219Z,100311.58
2023-05-11T22:24:24.451Z,100318.77
2023-05-11T22:26:54.694Z,100317.19
2023-05-11T22:29:24.294Z,100317.40
2023-05-11T22:31:57.217Z,100321.13
2023-05-11T22:34:27.051Z,100314.36
2023-05-11T22:36:57.483Z,100317.59
2023-05-11T22:39:27.362Z,100317.58
2023-05-11T22:41:57.506Z,100316.73
2023-05-11T22:44:28.336Z,100313.43
2023-05-11T22:46:59.796Z,100316.22
2023-05-11T22:49:29.594Z,100317.92
2023-05-11T22:51:59.670Z,100321.55
2023-05-11T22:54:29.455Z,100319.06
2023-05-11T22:57:00.392Z,100321.65
2023-05-11T22:59:31.846Z,100323.69
2023-05-11T23:02:04.588Z,100319.77
2023-05-11T23:04:34.453Z,100319.70
2023-05-11T23:07:04.911Z,100317.41
2023-05-11T23:09:35.245Z,100318.73
2023-05-11T23:12:06.684Z,100322.52
2023-05-11T23:14:36.575Z,100320.61
2023-05-11T23:17:06.872Z,100323.23
2023-05-11T23:19:36.966Z,100326.62
2023-05-11T23:22:06.825Z,100323.41
2023-05-11T23:24:37.256Z,100321.48
2023-05-11T23:27:07.166Z,100315.78
2023-05-11T23:29:37.189Z,100320.45
2023-05-11T23:32:07.571Z,100315.69
2023-05-11T23:34:38.120Z,100311.45
2023-05-11T23:37:08.170Z,100311.45
2023-05-11T23:39:38.562Z,100317.11
2023-05-11T23:42:09.061Z,100309.19
2023-05-11T23:44:39.510Z,100313.98
2023-05-11T23:47:09.031Z,100317.09
2023-05-11T23:49:41.353Z,100312.36
2023-05-11T23:52:10.347Z,100313.87
2023-05-11T23:54:40.460Z,100309.13
2023-05-11T23:57:10.450Z,100315.28
2023-05-11T23:59:40.348Z,100310.95
